Time;durP1;ratioP1;P1;durP2;ratioP2;P2;SDS_P1;SDS_P2;PMS_P1;PMS_P2;Temp;Humidity;BMP_temperature;BMP_pressure;BME280_temperature;BME280_humidity;BME280_pressure;Samples;Min_cycle;Max_cycle;Signal;HPM_P1;HPM_P2
2023/12/05 00:00:57;;;;;;;2.70;1.60;;;;;;;;;;5079243;28;20491;-74
2023/12/05 00:03:37;;;;;;;3.22;1.67;;;;;;;;;;5091567;28;20055;-76
2023/12/05 00:06:11;;;;;;;2.67;1.38;;;;;;;;;;5106994;28;20040;-77
2023/12/05 00:08:38;;;;;;;3.13;1.83;;;;;;;;;;5105308;28;20724;-77
2023/12/05 00:11:05;;;;;;;3.97;1.60;;;;;;;;;;5108984;28;20047;-75
2023/12/05 00:13:31;;;;;;;2.15;1.60;;;;;;;;;;5107431;28;20573;-75
2023/12/05 00:15:58;;;;;;;5.90;1.50;;;;;;;;;;5103762;28;20134;-75
2023/12/05 00:18:26;;;;;;;4.97;1.63;;;;;;;;;;5107114;28;20131;-74
2023/12/05 00:20:53;;;;;;;4.10;1.40;;;;;;;;;;5106158;28;20051;-73
2023/12/05 00:23:19;;;;;;;4.45;1.48;;;;;;;;;;5083943;28;20062;-75
2023/12/05 00:25:45;;;;;;;5.32;1.30;;;;;;;;;;5104650;27;20178;-74
2023/12/05 00:28:11;;;;;;;3.50;1.10;;;;;;;;;;5106961;28;20051;-77
2023/12/05 00:30:38;;;;;;;1.80;1.13;;;;;;;;;;5109822;28;20095;-74
2023/12/05 00:33:03;;;;;;;2.25;1.05;;;;;;;;;;5109377;28;20051;-74
2023/12/05 00:35:29;;;;;;;2.40;1.30;;;;;;;;;;5104937;28;20043;-75
2023/12/05 00:37:57;;;;;;;3.08;1.10;;;;;;;;;;5104759;27;20047;-75
2023/12/05 00:40:29;;;;;;;3.72;1.15;;;;;;;;;;5110003;28;20294;-74
2023/12/05 00:42:58;;;;;;;1.45;1.00;;;;;;;;;;5107128;28;20496;-74
2023/12/05 00:45:26;;;;;;;4.70;1.20;;;;;;;;;;5107464;28;20464;-74
2023/12/05 00:47:52;;;;;;;1.90;0.90;;;;;;;;;;5107858;28;20040;-74
2023/12/05 00:50:19;;;;;;;5.88;1.23;;;;;;;;;;5109838;28;20047;-75
2023/12/05 00:52:46;;;;;;;5.38;1.05;;;;;;;;;;5109198;27;20044;-75
2023/12/05 00:55:12;;;;;;;2.05;0.70;;;;;;;;;;5112228;28;20039;-74
2023/12/05 00:57:38;;;;;;;2.28;0.90;;;;;;;;;;5085264;28;20507;-75
2023/12/05 01:00:09;;;;;;;1.25;0.70;;;;;;;;;;5106014;28;20525;-75
2023/12/05 01:02:35;;;;;;;2.10;0.80;;;;;;;;;;5109230;28;20043;-74
2023/12/05 01:05:02;;;;;;;1.30;0.90;;;;;;;;;;5105412;27;20071;-74
2023/12/05 01:07:28;;;;;;;1.95;1.08;;;;;;;;;;5103366;27;20104;-75
2023/12/05 01:09:55;;;;;;;1.70;0.68;;;;;;;;;;5104354;27;20108;-71
2023/12/05 01:12:21;;;;;;;2.97;1.02;;;;;;;;;;5104175;28;20536;-74
2023/12/05 01:14:49;;;;;;;5.25;1.20;;;;;;;;;;5105680;28;20569;-73
2023/12/05 01:17:17;;;;;;;1.25;0.70;;;;;;;;;;5085782;28;20138;-73
2023/12/05 01:19:45;;;;;;;2.75;0.77;;;;;;;;;;5098167;28;20232;-76
2023/12/05 01:22:11;;;;;;;3.92;1.15;;;;;;;;;;5081709;28;20047;-74
2023/12/05 01:24:41;;;;;;;1.60;0.70;;;;;;;;;;5083871;28;20059;-74
2023/12/05 01:27:07;;;;;;;9.27;1.27;;;;;;;;;;5106737;28;20108;-74
2023/12/05 01:29:33;;;;;;;3.25;0.80;;;;;;;;;;5108655;28;20044;-75
2023/12/05 01:31:59;;;;;;;4.45;0.88;;;;;;;;;;5103520;28;20250;-74
2023/12/05 01:34:27;;;;;;;1.77;0.80;;;;;;;;;;5100881;28;20108;-74
2023/12/05 01:36:52;;;;;;;3.35;0.98;;;;;;;;;;5100423;27;20043;-73
2023/12/05 01:39:20;;;;;;;1.95;0.82;;;;;;;;;;5102467;28;20559;-74
2023/12/05 01:41:46;;;;;;;1.55;0.80;;;;;;;;;;5089402;28;20059;-75
2023/12/05 01:44:12;;;;;;;3.05;1.20;;;;;;;;;;5091687;28;20060;-72
2023/12/05 01:46:39;;;;;;;3.67;1.00;;;;;;;;;;5090644;28;20042;-73
2023/12/05 01:49:06;;;;;;;4.50;0.88;;;;;;;;;;5102350;28;20043;-75
2023/12/05 01:51:32;;;;;;;3.17;0.80;;;;;;;;;;5089817;28;20040;-75
2023/12/05 01:53:58;;;;;;;2.22;0.95;;;;;;;;;;5083898;28;20409;-74
2023/12/05 01:56:24;;;;;;;2.15;0.90;;;;;;;;;;5103518;28;20039;-74
2023/12/05 01:58:50;;;;;;;1.98;0.90;;;;;;;;;;5102607;27;20046;-76
2023/12/05 02:01:16;;;;;;;2.13;0.80;;;;;;;;;;5087119;28;20048;-76
2023/12/05 02:03:47;;;;;;;2.58;0.80;;;;;;;;;;5084094;28;20484;-75
2023/12/05 02:06:13;;;;;;;2.45;0.73;;;;;;;;;;5108365;27;20491;-75
2023/12/05 02:08:39;;;;;;;2.13;0.70;;;;;;;;;;5082359;28;20044;-74
2023/12/05 02:11:05;;;;;;;1.65;0.90;;;;;;;;;;5104330;28;20104;-76
2023/12/05 02:13:33;;;;;;;1.80;0.90;;;;;;;;;;5104656;28;20131;-75
2023/12/05 02:16:23;;;;;;;2.50;0.85;;;;;;;;;;5106984;28;20043;-73
2023/12/05 02:18:58;;;;;;;2.47;0.90;;;;;;;;;;5104348;28;20065;-74
2023/12/05 02:21:33;;;;;;;2.75;0.70;;;;;;;;;;5103481;28;20053;-73
2023/12/05 02:24:37;;;;;;;7.60;1.33;;;;;;;;;;5101474;28;20035;-74
2023/12/05 02:27:24;;;;;;;4.15;0.98;;;;;;;;;;5101599;28;20048;-74
2023/12/05 02:29:51;;;;;;;4.40;1.15;;;;;;;;;;5084691;28;20062;-75
2023/12/05 02:32:17;;;;;;;2.75;1.00;;;;;;;;;;5101489;28;20434;-73
2023/12/05 02:34:46;;;;;;;2.53;1.00;;;;;;;;;;5102636;28;20047;-74
2023/12/05 02:37:33;;;;;;;1.25;0.80;;;;;;;;;;5099823;28;20044;-73
2023/12/05 02:40:10;;;;;;;1.27;0.98;;;;;;;;;;5102084;28;20047;-75
2023/12/05 02:42:37;;;;;;;3.85;1.05;;;;;;;;;;5083218;28;20048;-73
2023/12/05 02:45:11;;;;;;;2.30;1.20;;;;;;;;;;5106049;28;20064;-74
2023/12/05 02:47:37;;;;;;;4.43;1.00;;;;;;;;;;5102111;28;20062;-73
2023/12/05 02:50:04;;;;;;;2.95;1.00;;;;;;;;;;5103683;28;20488;-75
2023/12/05 02:52:30;;;;;;;3.10;1.00;;;;;;;;;;5103466;28;20055;-74
2023/12/05 02:54:56;;;;;;;3.72;0.90;;;;;;;;;;5101424;28;20046;-74
2023/12/05 02:57:22;;;;;;;2.28;0.95;;;;;;;;;;5099933;28;20061;-74
2023/12/05 02:59:49;;;;;;;3.25;1.40;;;;;;;;;;5097429;28;20040;-75
2023/12/05 03:02:15;;;;;;;2.03;1.00;;;;;;;;;;5103117;28;20036;-74
2023/12/05 03:04:41;;;;;;;3.58;1.00;;;;;;;;;;5100037;28;20419;-73
2023/12/05 03:07:47;;;;;;;2.15;1.00;;;;;;;;;;5102646;28;20047;-74
2023/12/05 03:11:27;;;;;;;1.35;0.90;;;;;;;;;;5103185;28;20720;-73
2023/12/05 03:15:08;;;;;;;3.53;1.25;;;;;;;;;;5095560;28;20043;-74
2023/12/05 03:18:48;;;;;;;3.40;1.15;;;;;;;;;;5102850;28;20418;-75
2023/12/05 03:22:28;;;;;;;3.53;0.90;;;;;;;;;;5099479;28;20039;-74
2023/12/05 03:26:09;;;;;;;2.78;0.95;;;;;;;;;;4569147;28;15139551;-73
2023/12/05 03:29:49;;;;;;;1.92;0.70;;;;;;;;;;5100283;28;20096;-73
2023/12/05 03:33:30;;;;;;;2.35;0.98;;;;;;;;;;5104247;28;20061;-74
2023/12/05 03:37:10;;;;;;;3.75;0.93;;;;;;;;;;5101909;28;20042;-74
2023/12/05 03:40:50;;;;;;;3.28;1.17;;;;;;;;;;5098428;28;20315;-72
2023/12/05 03:44:31;;;;;;;3.03;1.00;;;;;;;;;;5104224;28;20058;-74
2023/12/05 03:48:11;;;;;;;1.65;0.90;;;;;;;;;;5102517;28;20427;-73
2023/12/05 03:51:52;;;;;;;1.65;0.90;;;;;;;;;;5101197;28;20392;-74
2023/12/05 03:55:32;;;;;;;2.20;1.00;;;;;;;;;;5097754;28;20048;-72
2023/12/05 03:59:13;;;;;;;3.75;1.15;;;;;;;;;;5096440;28;20039;-73
2023/12/05 04:02:54;;;;;;;3.72;0.98;;;;;;;;;;5097748;28;20046;-74
2023/12/05 04:06:40;;;;;;;3.03;1.00;;;;;;;;;;5102928;28;20078;-73
2023/12/05 04:10:20;;;;;;;2.90;1.05;;;;;;;;;;5105595;28;20564;-73
2023/12/05 04:14:01;;;;;;;4.82;0.98;;;;;;;;;;5097378;28;20083;-74
2023/12/05 04:17:43;;;;;;;3.42;1.20;;;;;;;;;;5101768;28;20397;-72
2023/12/05 04:21:26;;;;;;;2.60;1.10;;;;;;;;;;5105816;28;20092;-75
2023/12/05 04:25:04;;;;;;;3.80;1.40;;;;;;;;;;5104413;28;20066;-73
2023/12/05 04:28:44;;;;;;;3.47;0.90;;;;;;;;;;5102869;28;20067;-73
2023/12/05 04:32:26;;;;;;;5.28;1.05;;;;;;;;;;5103952;28;20074;-75
2023/12/05 04:36:07;;;;;;;2.20;1.05;;;;;;;;;;5103492;28;20514;-74
2023/12/05 04:39:48;;;;;;;3.67;1.08;;;;;;;;;;5106776;28;20054;-73
2023/12/05 04:43:28;;;;;;;3.67;1.13;;;;;;;;;;5094576;28;20048;-73
2023/12/05 04:47:08;;;;;;;1.25;0.90;;;;;;;;;;5102941;28;20424;-74
2023/12/05 04:50:49;;;;;;;2.95;1.02;;;;;;;;;;5097844;28;20374;-78
2023/12/05 04:54:29;;;;;;;3.92;0.95;;;;;;;;;;5095346;28;20046;-73
2023/12/05 04:58:09;;;;;;;3.47;1.25;;;;;;;;;;5097422;28;20043;-73
2023/12/05 05:01:50;;;;;;;2.33;1.05;;;;;;;;;;5097489;28;20055;-74
2023/12/05 05:05:30;;;;;;;3.50;1.20;;;;;;;;;;5098532;27;20403;-73
2023/12/05 05:09:12;;;;;;;3.60;1.10;;;;;;;;;;5099308;28;20551;-73
2023/12/05 05:12:52;;;;;;;4.95;1.17;;;;;;;;;;5096415;27;20044;-75
2023/12/05 05:16:32;;;;;;;5.55;1.67;;;;;;;;;;5094050;28;22381;-74
2023/12/05 05:20:13;;;;;;;4.07;1.45;;;;;;;;;;5098970;27;20048;-70
2023/12/05 05:23:53;;;;;;;6.95;1.27;;;;;;;;;;5097353;28;20538;-73
2023/12/05 05:27:34;;;;;;;3.85;1.33;;;;;;;;;;5060924;28;20090;-73
2023/12/05 05:31:14;;;;;;;3.22;1.35;;;;;;;;;;5055292;28;20139;-71
2023/12/05 05:34:55;;;;;;;2.88;1.20;;;;;;;;;;5056311;28;20288;-72
2023/12/05 05:38:35;;;;;;;6.22;1.45;;;;;;;;;;5057022;28;20036;-73
2023/12/05 05:42:15;;;;;;;9.20;1.65;;;;;;;;;;5055597;28;20051;-72
2023/12/05 05:45:57;;;;;;;5.20;1.70;;;;;;;;;;5053567;28;20052;-72
2023/12/05 05:49:37;;;;;;;5.25;1.52;;;;;;;;;;5055766;28;20418;-73
2023/12/05 05:53:17;;;;;;;3.80;1.50;;;;;;;;;;5058555;28;20047;-71
2023/12/05 05:56:59;;;;;;;5.45;1.65;;;;;;;;;;5062220;28;20102;-71
2023/12/05 06:00:39;;;;;;;4.65;1.77;;;;;;;;;;5060270;28;20049;-73
2023/12/05 06:04:20;;;;;;;6.50;1.60;;;;;;;;;;5057549;28;20044;-73
2023/12/05 06:08:00;;;;;;;11.75;1.80;;;;;;;;;;5059649;28;20085;-72
2023/12/05 06:11:14;;;;;;;6.35;2.20;;;;;;;;;;5065134;28;20091;-72
2023/12/05 06:14:56;;;;;;;3.97;1.65;;;;;;;;;;5058921;28;20067;-73
2023/12/05 06:18:37;;;;;;;4.55;1.58;;;;;;;;;;5055863;28;20482;-73
2023/12/05 06:22:17;;;;;;;5.50;1.80;;;;;;;;;;5058509;28;20052;-73
2023/12/05 06:25:59;;;;;;;4.13;1.65;;;;;;;;;;5072146;28;20320;-74
2023/12/05 06:29:39;;;;;;;3.53;1.55;;;;;;;;;;5103541;28;20054;-74
2023/12/05 06:33:21;;;;;;;4.35;1.90;;;;;;;;;;5105280;28;20059;-74
2023/12/05 06:37:02;;;;;;;7.28;2.20;;;;;;;;;;5100752;28;20376;-74
2023/12/05 06:40:02;;;;;;;6.53;2.47;;;;;;;;;;5099503;27;20035;-75
2023/12/05 06:42:31;;;;;;;8.95;2.60;;;;;;;;;;5083260;28;20184;-73
2023/12/05 06:45:37;;;;;;;4.07;2.50;;;;;;;;;;5099739;28;20249;-72
2023/12/05 06:49:17;;;;;;;6.63;2.20;;;;;;;;;;5093977;28;20515;-73
2023/12/05 06:52:59;;;;;;;5.88;2.10;;;;;;;;;;5101857;28;20044;-75
2023/12/05 06:56:38;;;;;;;5.95;1.50;;;;;;;;;;5098968;28;20051;-76
2023/12/05 07:00:18;;;;;;;10.95;2.00;;;;;;;;;;5093828;27;20392;-75
2023/12/05 07:03:58;;;;;;;8.75;1.77;;;;;;;;;;5095017;28;20048;-73
2023/12/05 07:07:39;;;;;;;5.65;2.28;;;;;;;;;;5101783;28;20369;-75
2023/12/05 07:11:20;;;;;;;6.63;2.45;;;;;;;;;;5097890;28;20050;-76
2023/12/05 07:15:00;;;;;;;11.52;2.45;;;;;;;;;;5099621;28;20404;-75
2023/12/05 07:18:44;;;;;;;11.32;2.50;;;;;;;;;;5106650;28;20494;-75
2023/12/05 07:22:24;;;;;;;5.63;2.60;;;;;;;;;;5099938;28;20051;-75
2023/12/05 07:26:05;;;;;;;13.95;2.92;;;;;;;;;;5098353;28;20123;-76
2023/12/05 07:29:45;;;;;;;8.85;4.05;;;;;;;;;;5093303;28;20051;-75
2023/12/05 07:33:26;;;;;;;9.93;3.63;;;;;;;;;;5097876;28;20079;-78
2023/12/05 07:37:06;;;;;;;12.75;3.03;;;;;;;;;;5098583;28;20098;-74
2023/12/05 07:40:47;;;;;;;11.40;3.38;;;;;;;;;;5098069;28;20046;-70
2023/12/05 07:44:30;;;;;;;15.90;3.38;;;;;;;;;;5096044;28;20040;-71
2023/12/05 07:48:10;;;;;;;11.32;2.58;;;;;;;;;;5099434;28;20122;-72
2023/12/05 07:51:53;;;;;;;6.50;2.78;;;;;;;;;;5102506;28;20079;-70
2023/12/05 07:55:34;;;;;;;11.65;2.83;;;;;;;;;;5104479;28;20055;-68
2023/12/05 07:59:15;;;;;;;11.25;2.72;;;;;;;;;;5105197;27;20191;-69
2023/12/05 08:02:56;;;;;;;11.50;2.63;;;;;;;;;;5109038;28;20101;-69
2023/12/05 08:06:36;;;;;;;8.10;2.33;;;;;;;;;;5105555;28;20083;-70
2023/12/05 08:10:17;;;;;;;7.65;2.42;;;;;;;;;;5104815;27;20297;-69
2023/12/05 08:13:56;;;;;;;9.75;2.63;;;;;;;;;;5105639;28;20679;-71
2023/12/05 08:17:37;;;;;;;11.13;2.83;;;;;;;;;;5101516;27;20048;-71
2023/12/05 08:21:18;;;;;;;12.20;2.63;;;;;;;;;;5103461;27;20043;-69
2023/12/05 08:24:59;;;;;;;10.48;2.80;;;;;;;;;;5104915;27;20233;-73
2023/12/05 08:28:39;;;;;;;10.63;2.83;;;;;;;;;;5099341;27;20324;-68
2023/12/05 08:32:20;;;;;;;10.38;4.13;;;;;;;;;;5106359;27;20321;-70
2023/12/05 08:36:02;;;;;;;14.23;2.35;;;;;;;;;;5102000;27;20112;-70
2023/12/05 08:39:03;;;;;;;7.47;1.80;;;;;;;;;;5102835;28;20039;-70
2023/12/05 08:41:29;;;;;;;10.10;2.45;;;;;;;;;;5108668;28;20036;-72
2023/12/05 08:43:55;;;;;;;8.05;2.28;;;;;;;;;;5111142;27;20149;-72
2023/12/05 08:46:24;;;;;;;8.43;2.10;;;;;;;;;;5096408;27;20043;-69
2023/12/05 08:48:50;;;;;;;8.30;2.03;;;;;;;;;;5098938;28;20055;-72
2023/12/05 08:51:18;;;;;;;6.47;1.98;;;;;;;;;;5093696;28;20125;-68
2023/12/05 08:53:44;;;;;;;7.85;1.90;;;;;;;;;;5100643;27;20052;-69
2023/12/05 08:56:11;;;;;;;6.13;1.92;;;;;;;;;;5102988;28;20499;-71
2023/12/05 08:58:37;;;;;;;6.45;1.63;;;;;;;;;;5088337;28;20043;-70
2023/12/05 09:01:05;;;;;;;6.95;1.95;;;;;;;;;;5105361;28;20063;-69
2023/12/05 09:03:31;;;;;;;5.50;2.20;;;;;;;;;;5083915;28;20052;-70
2023/12/05 09:05:59;;;;;;;6.75;2.10;;;;;;;;;;5102752;28;20044;-72
2023/12/05 09:08:26;;;;;;;5.60;1.73;;;;;;;;;;5109853;28;20046;-71
2023/12/05 09:10:55;;;;;;;4.53;1.60;;;;;;;;;;5108355;28;20047;-69
2023/12/05 09:13:22;;;;;;;9.07;2.03;;;;;;;;;;5106188;28;20152;-71
2023/12/05 09:15:48;;;;;;;4.85;1.60;;;;;;;;;;5091716;27;20074;-70
2023/12/05 09:18:15;;;;;;;3.10;1.50;;;;;;;;;;5096705;28;20067;-71
2023/12/05 09:20:43;;;;;;;7.88;1.80;;;;;;;;;;5105578;28;20060;-72
2023/12/05 09:23:11;;;;;;;5.35;1.52;;;;;;;;;;5107662;28;20054;-69
2023/12/05 09:25:38;;;;;;;5.18;1.50;;;;;;;;;;5107519;28;20117;-69
2023/12/05 09:28:04;;;;;;;2.78;1.60;;;;;;;;;;5101859;28;20486;-68
2023/12/05 09:30:30;;;;;;;2.70;1.80;;;;;;;;;;5103150;27;20100;-72
2023/12/05 09:32:58;;;;;;;4.63;1.50;;;;;;;;;;5110520;28;20757;-71
2023/12/05 09:35:25;;;;;;;5.20;1.50;;;;;;;;;;5108518;28;20083;-73
2023/12/05 09:37:52;;;;;;;4.97;1.60;;;;;;;;;;5090681;28;20048;-76
2023/12/05 09:40:24;;;;;;;3.60;1.40;;;;;;;;;;5097736;28;20031;-72
2023/12/05 09:42:51;;;;;;;3.40;1.38;;;;;;;;;;5106683;27;20158;-71
2023/12/05 09:45:18;;;;;;;2.35;1.23;;;;;;;;;;5106202;27;20048;-71
2023/12/05 09:47:50;;;;;;;4.32;1.40;;;;;;;;;;5101580;28;20123;-71
2023/12/05 09:50:19;;;;;;;6.72;1.40;;;;;;;;;;5108059;28;20269;-73
2023/12/05 09:52:46;;;;;;;8.57;1.77;;;;;;;;;;5107009;27;20059;-69
2023/12/05 09:55:13;;;;;;;4.80;1.70;;;;;;;;;;5104858;27;20134;-71
2023/12/05 09:57:39;;;;;;;2.10;1.30;;;;;;;;;;5099562;28;20044;-68
2023/12/05 10:00:07;;;;;;;4.05;1.60;;;;;;;;;;5102937;27;20066;-74
2023/12/05 10:02:37;;;;;;;11.82;2.00;;;;;;;;;;5106746;28;20051;-70
2023/12/05 10:05:05;;;;;;;2.08;1.38;;;;;;;;;;5104772;28;20059;-75
2023/12/05 10:07:37;;;;;;;7.88;1.52;;;;;;;;;;5111729;28;20051;-74
2023/12/05 10:10:06;;;;;;;3.90;1.88;;;;;;;;;;5111393;27;20048;-74
2023/12/05 10:12:36;;;;;;;13.73;2.25;;;;;;;;;;5107225;27;20119;-73
2023/12/05 10:15:02;;;;;;;4.53;1.27;;;;;;;;;;5098905;28;20070;-73
2023/12/05 10:17:32;;;;;;;2.45;1.20;;;;;;;;;;5101019;28;20467;-73
2023/12/05 10:19:59;;;;;;;2.88;1.45;;;;;;;;;;5096769;27;20055;-73
2023/12/05 10:22:26;;;;;;;6.70;1.75;;;;;;;;;;5101133;27;20078;-71
2023/12/05 10:24:56;;;;;;;3.00;1.70;;;;;;;;;;5086030;28;20059;-70
2023/12/05 10:27:23;;;;;;;2.92;1.77;;;;;;;;;;5100951;27;20048;-72
2023/12/05 10:29:49;;;;;;;12.80;1.90;;;;;;;;;;5104236;27;20104;-71
2023/12/05 10:32:15;;;;;;;3.47;1.65;;;;;;;;;;5105930;28;20059;-72
2023/12/05 10:34:52;;;;;;;4.35;1.65;;;;;;;;;;5108107;28;20055;-71
2023/12/05 10:37:30;;;;;;;9.80;2.53;;;;;;;;;;5100758;28;20054;-73
2023/12/05 10:39:58;;;;;;;5.40;1.52;;;;;;;;;;5106150;27;20046;-71
2023/12/05 10:42:26;;;;;;;3.13;1.40;;;;;;;;;;5107331;28;20059;-71
2023/12/05 10:44:52;;;;;;;2.60;1.30;;;;;;;;;;5100148;28;20048;-73
2023/12/05 10:47:18;;;;;;;3.42;1.30;;;;;;;;;;5088517;28;20143;-72
2023/12/05 10:49:44;;;;;;;5.82;1.73;;;;;;;;;;5108692;28;20130;-70
2023/12/05 10:52:13;;;;;;;4.78;1.27;;;;;;;;;;5106305;28;20082;-71
2023/12/05 10:54:40;;;;;;;3.00;1.13;;;;;;;;;;5106785;28;20219;-71
2023/12/05 10:57:09;;;;;;;3.88;1.40;;;;;;;;;;5104588;28;20039;-72
2023/12/05 10:59:37;;;;;;;4.93;1.30;;;;;;;;;;5085876;28;20055;-71
2023/12/05 11:02:14;;;;;;;3.53;1.50;;;;;;;;;;5087467;28;20050;-71
2023/12/05 11:04:42;;;;;;;2.17;1.08;;;;;;;;;;5101786;28;20573;-70
2023/12/05 11:07:10;;;;;;;2.95;0.85;;;;;;;;;;5103745;28;20143;-72
2023/12/05 11:09:40;;;;;;;2.75;1.00;;;;;;;;;;5077663;28;20067;-72
2023/12/05 11:12:08;;;;;;;3.13;1.02;;;;;;;;;;5099291;28;20047;-71
2023/12/05 11:14:58;;;;;;;1.75;0.82;;;;;;;;;;5084966;28;20066;-71
2023/12/05 11:17:31;;;;;;;8.95;1.10;;;;;;;;;;5101106;28;20130;-71
2023/12/05 11:20:21;;;;;;;4.18;1.05;;;;;;;;;;5104216;28;20488;-72
2023/12/05 11:23:21;;;;;;;3.00;1.35;;;;;;;;;;5104501;28;20047;-73
2023/12/05 11:26:09;;;;;;;1.10;0.90;;;;;;;;;;5102671;28;20055;-72
2023/12/05 11:28:49;;;;;;;;;;;;;;;;;;5104381;28;20051;-73
2023/12/05 11:31:32;;;;;;;2.20;1.10;;;;;;;;;;5108729;27;19926;-71
2023/12/05 11:34:24;;;;;;;1.40;1.08;;;;;;;;;;5110205;28;20488;-75
2023/12/05 11:37:29;;;;;;;1.55;1.00;;;;;;;;;;5105981;28;20469;-75
2023/12/05 11:39:55;;;;;;;3.00;1.10;;;;;;;;;;5105268;27;20141;-72
2023/12/05 11:42:22;;;;;;;4.30;1.10;;;;;;;;;;5108086;28;20304;-70
2023/12/05 11:44:52;;;;;;;3.53;1.10;;;;;;;;;;5113256;27;20114;-76
2023/12/05 11:47:29;;;;;;;3.50;0.93;;;;;;;;;;5110904;27;20055;-72
2023/12/05 11:49:59;;;;;;;2.65;1.05;;;;;;;;;;5107059;28;20051;-70
2023/12/05 11:52:39;;;;;;;2.92;1.73;;;;;;;;;;5102499;27;20059;-69
2023/12/05 11:55:08;;;;;;;2.20;1.10;;;;;;;;;;5109739;28;20060;-74
2023/12/05 11:57:34;;;;;;;4.65;1.92;;;;;;;;;;5111596;28;20052;-73
2023/12/05 12:00:00;;;;;;;4.07;1.33;;;;;;;;;;5111026;28;20104;-73
2023/12/05 12:02:32;;;;;;;4.78;1.67;;;;;;;;;;5107502;27;20044;-73
2023/12/05 12:05:05;;;;;;;5.78;1.50;;;;;;;;;;5102825;28;20058;-71
2023/12/05 12:07:33;;;;;;;2.75;1.70;;;;;;;;;;5109320;28;20094;-73
2023/12/05 12:09:59;;;;;;;2.90;1.00;;;;;;;;;;5106031;27;20457;-73
2023/12/05 12:12:25;;;;;;;5.70;1.70;;;;;;;;;;5086171;28;20060;-71
2023/12/05 12:14:53;;;;;;;4.30;2.05;;;;;;;;;;5108093;28;20521;-71
2023/12/05 12:17:19;;;;;;;13.73;2.80;;;;;;;;;;5111531;27;20567;-74
2023/12/05 12:19:45;;;;;;;3.78;2.13;;;;;;;;;;5110002;27;20048;-74
2023/12/05 12:22:14;;;;;;;2.00;1.10;;;;;;;;;;5111677;28;20044;-74
2023/12/05 12:24:41;;;;;;;9.68;1.63;;;;;;;;;;5085728;28;20048;-74
2023/12/05 12:27:08;;;;;;;2.50;1.30;;;;;;;;;;5091518;28;20063;-72
2023/12/05 12:29:36;;;;;;;3.13;1.27;;;;;;;;;;5090326;28;20083;-74
2023/12/05 12:32:10;;;;;;;3.65;1.88;;;;;;;;;;5087897;27;20091;-77
2023/12/05 12:34:37;;;;;;;;;;;;;;;;;;5088670;28;20385;-75
2023/12/05 12:37:05;;;;;;;3.78;1.75;;;;;;;;;;5090625;28;19924;-71
2023/12/05 12:39:34;;;;;;;3.85;1.48;;;;;;;;;;5095625;28;20400;-75
2023/12/05 12:42:01;;;;;;;4.10;1.52;;;;;;;;;;5105408;28;20082;-71
2023/12/05 12:44:29;;;;;;;3.08;1.38;;;;;;;;;;5105404;28;20043;-75
2023/12/05 12:46:57;;;;;;;3.40;1.52;;;;;;;;;;5107043;27;20051;-73
2023/12/05 12:49:25;;;;;;;4.47;1.45;;;;;;;;;;5117266;28;20166;-71
2023/12/05 12:51:54;;;;;;;3.10;1.30;;;;;;;;;;5096950;28;20048;-73
2023/12/05 12:54:24;;;;;;;5.07;2.30;;;;;;;;;;5103095;28;20053;-74
2023/12/05 12:56:50;;;;;;;3.83;1.80;;;;;;;;;;5110211;27;20116;-73
2023/12/05 12:59:17;;;;;;;3.50;0.70;;;;;;;;;;5102292;28;20039;-72
2023/12/05 13:01:43;;;;;;;1.00;0.80;;;;;;;;;;5104039;28;20400;-72
2023/12/05 13:04:13;;;;;;;1.10;0.90;;;;;;;;;;5106622;28;20495;-76
2023/12/05 13:06:41;;;;;;;1.05;0.70;;;;;;;;;;5106291;28;20075;-76
2023/12/05 13:09:10;;;;;;;2.15;0.68;;;;;;;;;;5101219;28;20119;-72
2023/12/05 13:11:36;;;;;;;0.50;0.50;;;;;;;;;;5106380;27;20133;-71
2023/12/05 13:14:11;;;;;;;3.30;0.82;;;;;;;;;;5103064;28;20703;-71
2023/12/05 13:16:40;;;;;;;1.10;0.90;;;;;;;;;;5104131;28;20154;-71
2023/12/05 13:19:32;;;;;;;1.13;0.80;;;;;;;;;;5101168;27;20071;-75
2023/12/05 13:21:59;;;;;;;3.78;1.10;;;;;;;;;;5104656;28;20158;-71
2023/12/05 13:24:28;;;;;;;2.10;0.90;;;;;;;;;;5103690;28;20105;-75
2023/12/05 13:26:54;;;;;;;2.15;0.77;;;;;;;;;;5084250;28;20088;-71
2023/12/05 13:29:20;;;;;;;4.25;1.42;;;;;;;;;;5100696;28;20040;-71
2023/12/05 13:31:46;;;;;;;4.68;1.58;;;;;;;;;;5097549;28;20115;-72
2023/12/05 13:34:14;;;;;;;2.08;1.00;;;;;;;;;;5104260;28;20064;-71
2023/12/05 13:36:40;;;;;;;2.20;1.30;;;;;;;;;;5098142;27;20119;-73
2023/12/05 13:39:08;;;;;;;4.25;1.20;;;;;;;;;;5081627;27;20131;-72
2023/12/05 13:41:38;;;;;;;3.05;1.20;;;;;;;;;;5109548;27;20067;-76
2023/12/05 13:44:04;;;;;;;5.50;1.35;;;;;;;;;;5105478;28;20056;-72
2023/12/05 13:46:30;;;;;;;2.05;0.85;;;;;;;;;;5109572;27;20070;-75
2023/12/05 13:49:01;;;;;;;3.30;1.80;;;;;;;;;;5108197;28;20101;-76
2023/12/05 13:51:29;;;;;;;2.15;1.10;;;;;;;;;;5104700;27;20469;-74
2023/12/05 13:53:55;;;;;;;3.20;1.50;;;;;;;;;;5084249;28;20150;-71
2023/12/05 13:56:22;;;;;;;2.30;1.15;;;;;;;;;;5085097;28;20626;-72
2023/12/05 13:58:48;;;;;;;1.65;0.75;;;;;;;;;;5103009;27;20055;-73
2023/12/05 14:01:15;;;;;;;1.70;1.20;;;;;;;;;;5096815;27;20190;-73
2023/12/05 14:03:43;;;;;;;3.03;1.35;;;;;;;;;;5089807;28;20055;-72
2023/12/05 14:06:09;;;;;;;1.83;0.80;;;;;;;;;;5106627;28;20048;-76
2023/12/05 14:08:35;;;;;;;3.83;1.80;;;;;;;;;;5098552;28;22243;-74
2023/12/05 14:11:00;;;;;;;3.30;1.73;;;;;;;;;;5104150;28;20096;-74
2023/12/05 14:13:28;;;;;;;3.83;1.65;;;;;;;;;;5071827;28;20248;-76
2023/12/05 14:15:54;;;;;;;2.63;1.40;;;;;;;;;;5086270;28;20044;-74
2023/12/05 14:18:22;;;;;;;2.72;1.10;;;;;;;;;;5095463;28;20090;-72
2023/12/05 14:20:50;;;;;;;2.53;1.20;;;;;;;;;;5108450;28;20067;-73
2023/12/05 14:23:18;;;;;;;6.10;1.38;;;;;;;;;;5102683;28;20074;-74
2023/12/05 14:25:45;;;;;;;6.07;2.63;;;;;;;;;;5107452;28;20055;-75
2023/12/05 14:28:13;;;;;;;4.63;1.48;;;;;;;;;;5086345;28;20048;-76
2023/12/05 14:30:40;;;;;;;1.90;1.23;;;;;;;;;;5101486;27;20109;-73
2023/12/05 14:33:10;;;;;;;4.60;1.15;;;;;;;;;;5103586;28;20056;-74
2023/12/05 14:35:37;;;;;;;4.60;1.23;;;;;;;;;;5108046;28;20215;-73
2023/12/05 14:38:04;;;;;;;4.50;1.40;;;;;;;;;;5107478;28;20056;-74
2023/12/05 14:40:30;;;;;;;5.57;1.50;;;;;;;;;;5110327;28;20052;-75
2023/12/05 14:43:00;;;;;;;4.25;1.50;;;;;;;;;;5111980;28;20052;-73
2023/12/05 14:45:27;;;;;;;4.75;1.38;;;;;;;;;;5111003;28;20047;-72
2023/12/05 14:47:54;;;;;;;3.55;1.30;;;;;;;;;;5105854;28;20400;-72
2023/12/05 14:50:20;;;;;;;2.92;1.20;;;;;;;;;;5104388;28;20048;-73
2023/12/05 14:52:46;;;;;;;3.95;2.20;;;;;;;;;;5106339;28;20060;-74
2023/12/05 14:55:14;;;;;;;9.63;1.20;;;;;;;;;;5101163;28;21404;-73
2023/12/05 14:57:44;;;;;;;2.28;1.02;;;;;;;;;;5089200;28;20796;-73
2023/12/05 15:00:13;;;;;;;7.65;1.38;;;;;;;;;;5102798;28;20043;-71
2023/12/05 15:02:40;;;;;;;3.13;1.20;;;;;;;;;;5103250;28;20047;-71
2023/12/05 15:05:06;;;;;;;3.17;1.80;;;;;;;;;;5102890;28;20048;-71
2023/12/05 15:07:32;;;;;;;4.65;1.80;;;;;;;;;;5101078;28;20119;-71
2023/12/05 15:09:58;;;;;;;5.25;1.60;;;;;;;;;;5099775;28;20555;-73
2023/12/05 15:12:25;;;;;;;7.90;1.40;;;;;;;;;;5103505;28;20057;-71
2023/12/05 15:14:50;;;;;;;3.03;1.70;;;;;;;;;;5104572;28;20430;-71
2023/12/05 15:17:16;;;;;;;8.02;2.35;;;;;;;;;;5105160;28;20040;-72
2023/12/05 15:19:44;;;;;;;6.97;1.40;;;;;;;;;;5104137;28;20064;-70
2023/12/05 15:22:11;;;;;;;2.58;1.33;;;;;;;;;;5104258;28;20046;-68
2023/12/05 15:24:37;;;;;;;2.50;1.20;;;;;;;;;;5098888;28;20042;-78
2023/12/05 15:27:04;;;;;;;6.38;1.52;;;;;;;;;;5105810;28;20055;-75
2023/12/05 15:29:29;;;;;;;6.72;1.27;;;;;;;;;;5103477;28;20132;-75
2023/12/05 15:31:56;;;;;;;5.95;1.85;;;;;;;;;;5102432;28;20127;-73
2023/12/05 15:34:22;;;;;;;7.85;1.23;;;;;;;;;;5102450;28;20131;-73
2023/12/05 15:36:49;;;;;;;2.80;1.27;;;;;;;;;;5081301;28;20055;-73
2023/12/05 15:39:15;;;;;;;3.03;1.48;;;;;;;;;;5102742;28;20339;-75
2023/12/05 15:41:44;;;;;;;4.47;1.15;;;;;;;;;;5085891;28;20086;-75
2023/12/05 15:44:10;;;;;;;3.03;1.10;;;;;;;;;;5102313;28;20047;-75
2023/12/05 15:46:38;;;;;;;4.75;1.10;;;;;;;;;;5098719;28;20048;-79
2023/12/05 15:49:03;;;;;;;5.47;1.20;;;;;;;;;;5099889;28;20054;-78
2023/12/05 15:51:35;;;;;;;3.03;1.10;;;;;;;;;;5104528;28;20031;-70
2023/12/05 15:54:02;;;;;;;4.82;1.75;;;;;;;;;;5097416;28;20071;-72
2023/12/05 15:56:29;;;;;;;6.40;1.60;;;;;;;;;;5101277;28;20053;-71
2023/12/05 15:58:56;;;;;;;4.22;1.10;;;;;;;;;;5096424;28;20086;-72
2023/12/05 16:01:23;;;;;;;3.80;1.20;;;;;;;;;;5106709;28;20384;-71
2023/12/05 16:03:49;;;;;;;3.13;1.35;;;;;;;;;;5096996;28;20052;-72
2023/12/05 16:06:16;;;;;;;3.22;1.30;;;;;;;;;;5096697;28;20054;-74
2023/12/05 16:08:42;;;;;;;9.40;2.58;;;;;;;;;;5100717;28;20036;-72
2023/12/05 16:11:08;;;;;;;11.18;1.27;;;;;;;;;;5088263;28;20055;-70
2023/12/05 16:13:36;;;;;;;2.33;1.50;;;;;;;;;;5101652;27;20461;-73
2023/12/05 16:16:02;;;;;;;3.58;1.35;;;;;;;;;;5097091;27;20039;-73
2023/12/05 16:18:29;;;;;;;3.20;1.20;;;;;;;;;;5104223;28;21076;-75
2023/12/05 16:20:58;;;;;;;4.32;2.17;;;;;;;;;;5109349;28;20048;-73
2023/12/05 16:23:26;;;;;;;3.50;1.63;;;;;;;;;;5110956;27;20324;-71
2023/12/05 16:26:03;;;;;;;3.40;1.25;;;;;;;;;;5105886;28;20449;-72
2023/12/05 16:28:30;;;;;;;3.60;1.30;;;;;;;;;;5103268;27;20070;-72
2023/12/05 16:30:58;;;;;;;5.70;1.92;;;;;;;;;;5109035;27;20032;-73
2023/12/05 16:33:24;;;;;;;3.90;1.80;;;;;;;;;;5109398;27;20371;-73
2023/12/05 16:35:50;;;;;;;3.75;1.42;;;;;;;;;;5104298;27;20047;-73
2023/12/05 16:38:16;;;;;;;4.10;1.60;;;;;;;;;;5109092;28;20254;-71